createdAt,value
2022-12-09T00:01:07.586Z,36.42
2022-12-09T00:03:36.184Z,36.67
2022-12-09T00:06:08.170Z,37.67
2022-12-09T00:08:36.409Z,36.97
2022-12-09T00:11:04.578Z,35.78
2022-12-09T00:16:01.182Z,38.42
2022-12-09T00:18:28.810Z,37.42
2022-12-09T00:20:56.487Z,40.80
2022-12-09T00:23:23.960Z,38.72
2022-12-09T00:25:51.476Z,35.50
2022-12-09T00:28:19.053Z,37.13
2022-12-09T00:30:46.628Z,37.45
2022-12-09T00:33:15.534Z,39.22
2022-12-09T00:35:43.200Z,37.00
2022-12-09T00:38:10.714Z,38.22
2022-12-09T00:40:38.424Z,36.95
2022-12-09T00:43:05.894Z,40.22
2022-12-09T00:45:33.363Z,37.75
2022-12-09T00:48:01.000Z,38.15
2022-12-09T00:50:30.030Z,38.35
2022-12-09T00:52:57.714Z,37.88
2022-12-09T00:55:25.498Z,40.95
2022-12-09T00:57:53.114Z,38.20
2022-12-09T01:00:21.059Z,35.17
2022-12-09T01:05:16.248Z,40.38
2022-12-09T01:07:45.394Z,41.65
2022-12-09T01:10:13.149Z,39.10
2022-12-09T01:12:40.728Z,35.70
2022-12-09T01:15:09.515Z,37.90
2022-12-09T01:17:37.465Z,40.47
2022-12-09T01:22:33.668Z,37.60
2022-12-09T01:25:03.012Z,37.03
2022-12-09T01:27:31.714Z,39.03
2022-12-09T01:29:59.357Z,39.13
2022-12-09T01:32:26.995Z,39.95
2022-12-09T01:34:54.591Z,37.47
2022-12-09T01:37:22.252Z,42.20
2022-12-09T01:39:50.365Z,36.88
2022-12-09T01:45:37.145Z,36.65
2022-12-09T01:48:11.150Z,41.10
2022-12-09T01:50:42.564Z,37.42
2022-12-09T01:53:11.430Z,43.88
2022-12-09T01:55:39.256Z,41.08
2022-12-09T01:58:08.329Z,40.88
2022-12-09T02:00:36.470Z,43.65
2022-12-09T02:03:04.119Z,36.78
2022-12-09T02:05:31.911Z,37.97
2022-12-09T02:07:59.588Z,38.13
2022-12-09T02:10:28.636Z,38.95
2022-12-09T02:13:05.797Z,38.97
2022-12-09T02:15:41.844Z,37.70
2022-12-09T02:18:20.241Z,40.78
2022-12-09T02:20:55.067Z,39.78
2022-12-09T02:23:25.754Z,36.72
2022-12-09T02:25:57.313Z,38.53
2022-12-09T02:28:58.009Z,33.72
2022-12-09T02:31:44.638Z,38.30
2022-12-09T02:34:18.112Z,37.45
2022-12-09T02:36:55.802Z,37.20
2022-12-09T02:39:28.288Z,35.42
2022-12-09T02:41:59.551Z,38.72
2022-12-09T02:44:28.230Z,36.55
2022-12-09T02:46:56.909Z,36.67
2022-12-09T02:49:27.695Z,36.88
2022-12-09T02:51:56.526Z,39.38
2022-12-09T02:54:25.548Z,35.15
2022-12-09T02:56:57.826Z,37.83
2022-12-09T02:59:25.431Z,40.63
2022-12-09T03:02:02.554Z,35.05
2022-12-09T03:04:32.987Z,36.30
2022-12-09T03:07:12.321Z,37.30
2022-12-09T03:09:47.793Z,38.72
2022-12-09T03:12:21.302Z,35.08
2022-12-09T03:14:52.978Z,36.65
2022-12-09T03:17:25.131Z,35.63
2022-12-09T03:19:58.337Z,35.67
2022-12-09T03:22:30.253Z,37.22
2022-12-09T03:25:04.841Z,36.50
2022-12-09T03:27:37.891Z,34.58
2022-12-09T03:30:07.683Z,36.65
2022-12-09T03:32:39.294Z,40.75
2022-12-09T03:35:12.673Z,39.72
2022-12-09T03:37:42.785Z,43.63
2022-12-09T03:40:15.554Z,40.88
2022-12-09T03:42:50.086Z,38.97
2022-12-09T03:45:20.843Z,39.40
2022-12-09T03:47:48.451Z,38.67
2022-12-09T03:50:18.146Z,41.33
2022-12-09T03:52:50.109Z,41.83
2022-12-09T03:55:25.862Z,40.17
2022-12-09T03:57:58.138Z,41.45
2022-12-09T04:00:25.888Z,37.70
2022-12-09T04:02:53.677Z,34.25
2022-12-09T04:05:22.644Z,37.13
2022-12-09T04:07:50.249Z,38.58
2022-12-09T04:10:18.047Z,42.95
2022-12-09T04:12:45.574Z,43.20
2022-12-09T04:15:13.304Z,38.45
2022-12-09T04:17:40.955Z,40.58
2022-12-09T04:20:10.069Z,34.25
2022-12-09T04:22:39.378Z,37.50
2022-12-09T04:25:07.727Z,37.78
2022-12-09T04:27:37.602Z,36.78
2022-12-09T04:30:07.355Z,36.65
2022-12-09T04:32:35.581Z,43.78
2022-12-09T04:35:03.205Z,38.90
2022-12-09T04:37:30.781Z,38.85
2022-12-09T04:39:59.640Z,36.25
2022-12-09T04:42:29.313Z,37.42
2022-12-09T04:44:57.206Z,35.92
2022-12-09T04:47:24.770Z,39.30
2022-12-09T04:49:52.695Z,39.00
2022-12-09T04:52:20.814Z,36.15
2022-12-09T04:57:19.568Z,37.72
2022-12-09T04:59:47.078Z,37.05
2022-12-09T05:02:14.903Z,38.58
2022-12-09T05:04:43.424Z,37.67
2022-12-09T05:07:12.544Z,39.92
2022-12-09T05:09:40.449Z,37.88
2022-12-09T05:12:08.925Z,37.75
2022-12-09T05:14:37.920Z,37.22
2022-12-09T05:17:07.418Z,37.25
2022-12-09T05:19:35.114Z,34.88
2022-12-09T05:22:02.899Z,35.63
2022-12-09T05:24:32.338Z,38.85
2022-12-09T05:26:59.905Z,38.55
2022-12-09T05:29:27.657Z,45.05
2022-12-09T05:31:56.708Z,41.78
2022-12-09T05:34:24.362Z,39.38
2022-12-09T05:36:53.570Z,39.42
2022-12-09T05:39:21.559Z,35.90
2022-12-09T05:41:49.588Z,37.03
2022-12-09T05:46:44.891Z,40.55
2022-12-09T05:49:13.861Z,40.20
2022-12-09T05:51:42.032Z,40.42
2022-12-09T05:54:09.710Z,40.15
2022-12-09T05:56:39.479Z,37.95
2022-12-09T05:59:11.014Z,40.33
2022-12-09T06:04:06.655Z,35.70
2022-12-09T06:09:03.950Z,38.22
2022-12-09T06:14:01.479Z,38.42
2022-12-09T06:16:29.356Z,39.03
2022-12-09T06:18:59.952Z,37.85
2022-12-09T06:21:27.952Z,41.75
2022-12-09T06:23:57.376Z,41.35
2022-12-09T06:26:27.156Z,39.80
2022-12-09T06:28:56.188Z,40.03
2022-12-09T06:31:24.908Z,41.75
2022-12-09T06:33:55.300Z,41.97
2022-12-09T06:36:24.226Z,44.45
2022-12-09T06:41:21.286Z,39.15
2022-12-09T06:43:49.479Z,38.40
2022-12-09T06:46:19.644Z,40.10
2022-12-09T06:48:48.151Z,43.13
2022-12-09T06:51:16.991Z,46.42
2022-12-09T06:53:45.076Z,43.05
2022-12-09T06:58:44.436Z,39.95
2022-12-09T07:01:15.043Z,41.65
2022-12-09T07:03:45.839Z,46.95
2022-12-09T07:06:21.948Z,43.63
2022-12-09T07:08:50.180Z,47.03
2022-12-09T07:11:18.377Z,44.00
2022-12-09T07:13:47.333Z,45.78
2022-12-09T07:16:15.047Z,46.83
2022-12-09T07:18:43.092Z,46.67
2022-12-09T07:21:12.534Z,45.72
2022-12-09T07:23:40.325Z,45.30
2022-12-09T07:26:08.786Z,49.40
2022-12-09T07:28:40.561Z,50.60
2022-12-09T07:31:18.567Z,49.03
2022-12-09T07:33:46.241Z,44.42
2022-12-09T07:38:49.013Z,44.10
2022-12-09T07:41:19.233Z,46.28
2022-12-09T07:43:47.509Z,44.47
2022-12-09T07:46:18.209Z,46.70
2022-12-09T07:48:46.654Z,44.72
2022-12-09T07:51:15.155Z,46.13
2022-12-09T07:56:14.781Z,40.25
2022-12-09T07:58:43.057Z,40.92
2022-12-09T08:01:13.427Z,40.08
2022-12-09T08:03:42.976Z,43.90
2022-12-09T08:06:13.044Z,47.72
2022-12-09T08:08:41.034Z,42.45
2022-12-09T08:13:38.488Z,41.13
2022-12-09T08:16:08.511Z,42.60
2022-12-09T08:18:37.433Z,42.42
2022-12-09T08:21:09.634Z,42.92
2022-12-09T08:23:39.537Z,40.72
2022-12-09T08:26:07.670Z,40.30
2022-12-09T08:28:35.737Z,42.55
2022-12-09T08:33:35.489Z,44.60
2022-12-09T08:38:32.749Z,38.85
2022-12-09T08:41:08.607Z,40.92
2022-12-09T08:43:36.248Z,42.50
2022-12-09T08:46:04.061Z,40.92
2022-12-09T08:51:01.279Z,41.10
2022-12-09T08:53:29.042Z,40.10
2022-12-09T08:55:58.242Z,42.85
2022-12-09T08:58:26.470Z,44.13
2022-12-09T09:00:54.369Z,40.28
2022-12-09T09:03:22.186Z,44.50
2022-12-09T09:05:50.416Z,44.28
2022-12-09T09:08:18.378Z,45.60
2022-12-09T09:13:15.011Z,44.15
2022-12-09T09:15:42.984Z,41.08
2022-12-09T09:23:06.993Z,42.60
2022-12-09T09:25:35.186Z,42.25
2022-12-09T09:28:02.988Z,43.80
2022-12-09T09:30:32.311Z,40.83
2022-12-09T09:33:00.180Z,42.70
2022-12-09T09:35:27.907Z,42.17
2022-12-09T09:37:56.125Z,43.33
2022-12-09T09:40:24.238Z,41.35
2022-12-09T09:42:54.212Z,38.15
2022-12-09T09:45:24.898Z,43.72
2022-12-09T09:47:57.561Z,39.28
2022-12-09T09:50:32.799Z,44.00
2022-12-09T09:53:09.722Z,43.33
2022-12-09T09:55:43.285Z,45.53
2022-12-09T09:58:17.820Z,39.75
2022-12-09T10:00:55.797Z,44.72
2022-12-09T10:06:09.714Z,40.85
2022-12-09T10:08:45.747Z,43.40
2022-12-09T10:11:19.809Z,42.17
2022-12-09T10:13:55.423Z,48.05
2022-12-09T10:16:27.321Z,47.05
2022-12-09T10:19:08.038Z,44.85
2022-12-09T10:21:41.478Z,46.97
2022-12-09T10:24:18.463Z,45.25
2022-12-09T10:26:56.372Z,48.58
2022-12-09T10:29:34.968Z,47.72
2022-12-09T10:32:02.795Z,48.13
2022-12-09T10:34:32.042Z,45.05
2022-12-09T10:36:59.797Z,45.70
2022-12-09T10:39:27.352Z,45.17
2022-12-09T10:42:15.498Z,42.70
2022-12-09T10:44:43.173Z,46.30
2022-12-09T10:47:24.790Z,44.90
2022-12-09T10:49:56.280Z,44.30
2022-12-09T10:52:25.762Z,45.35
2022-12-09T10:54:53.723Z,45.78
2022-12-09T10:57:27.488Z,44.35
2022-12-09T11:00:02.036Z,43.33
2022-12-09T11:02:32.867Z,46.80
2022-12-09T11:05:23.833Z,42.95
2022-12-09T11:07:53.666Z,48.95
2022-12-09T11:10:25.436Z,47.40
2022-12-09T11:12:55.389Z,46.22
2022-12-09T11:15:27.991Z,41.85
2022-12-09T11:17:59.477Z,46.90
2022-12-09T11:20:30.516Z,44.10
2022-12-09T11:23:05.786Z,45.67
2022-12-09T11:25:36.081Z,46.28
2022-12-09T11:28:06.669Z,48.45
2022-12-09T11:30:40.661Z,43.85
2022-12-09T11:33:25.357Z,43.97
2022-12-09T11:36:01.888Z,41.30
2022-12-09T11:38:37.250Z,44.53
2022-12-09T11:41:39.303Z,41.35
2022-12-09T11:44:21.567Z,39.03
2022-12-09T11:46:57.368Z,39.80
2022-12-09T11:49:25.486Z,41.83
2022-12-09T11:54:35.830Z,43.03
2022-12-09T11:57:05.130Z,43.53
2022-12-09T12:02:36.151Z,42.83
2022-12-09T12:05:09.967Z,42.05
2022-12-09T12:07:43.956Z,38.83
2022-12-09T12:10:20.256Z,44.63
2022-12-09T12:13:00.184Z,39.38
2022-12-09T12:15:33.158Z,39.25
2022-12-09T12:18:03.146Z,35.42
2022-12-09T12:20:43.945Z,39.88
2022-12-09T12:23:31.727Z,36.47
2022-12-09T12:28:57.215Z,37.53
2022-12-09T12:31:51.978Z,36.63
2022-12-09T12:34:34.335Z,41.47
2022-12-09T12:37:26.342Z,35.23
2022-12-09T12:40:05.526Z,38.25
2022-12-09T12:43:06.065Z,36.55
2022-12-09T12:46:00.476Z,36.97
2022-12-09T12:48:34.755Z,38.60
2022-12-09T12:51:15.479Z,37.28
2022-12-09T12:53:51.088Z,39.10
2022-12-09T12:56:24.462Z,36.85
2022-12-09T12:59:04.519Z,42.50
2022-12-09T13:01:34.946Z,39.28
2022-12-09T13:04:13.304Z,38.28
2022-12-09T13:06:46.377Z,38.65
2022-12-09T13:09:18.971Z,41.67
2022-12-09T13:12:01.119Z,40.85
2022-12-09T13:14:36.402Z,41.33
2022-12-09T13:17:08.447Z,38.47
2022-12-09T13:19:40.685Z,41.25
2022-12-09T13:22:17.080Z,40.28
2022-12-09T13:24:54.188Z,35.78
2022-12-09T13:27:35.613Z,42.35
2022-12-09T13:30:06.540Z,39.90
2022-12-09T13:32:59.534Z,39.72
2022-12-09T13:35:35.564Z,37.20
2022-12-09T13:38:03.124Z,40.63
2022-12-09T13:40:36.449Z,40.88
2022-12-09T13:43:12.670Z,37.42
2022-12-09T13:45:50.662Z,39.45
2022-12-09T13:48:44.599Z,38.20
2022-12-09T13:51:12.837Z,42.95
2022-12-09T13:53:47.254Z,40.75
2022-12-09T13:56:30.416Z,39.15
2022-12-09T13:59:44.444Z,39.38
2022-12-09T14:02:19.675Z,40.10
2022-12-09T14:04:55.928Z,39.42
2022-12-09T14:07:33.612Z,37.88
2022-12-09T14:10:02.418Z,36.90
2022-12-09T14:13:05.687Z,43.38
2022-12-09T14:15:41.274Z,41.05
2022-12-09T14:18:30.859Z,41.28
2022-12-09T14:21:24.205Z,38.72
2022-12-09T14:24:28.842Z,39.78
2022-12-09T14:27:12.121Z,39.47
2022-12-09T14:29:54.983Z,37.83
2022-12-09T14:32:28.973Z,38.53
2022-12-09T14:35:20.894Z,44.42
2022-12-09T14:38:00.789Z,37.45
2022-12-09T14:40:51.802Z,38.90
2022-12-09T14:43:35.453Z,40.60
2022-12-09T14:46:07.526Z,37.53
2022-12-09T14:48:39.059Z,39.38
2022-12-09T14:51:18.767Z,40.47
2022-12-09T14:53:50.956Z,42.00
2022-12-09T14:56:20.406Z,42.92
2022-12-09T14:58:50.111Z,44.53
2022-12-09T15:01:19.020Z,42.05
2022-12-09T15:03:54.765Z,46.20
2022-12-09T15:06:26.563Z,42.05
2022-12-09T15:08:59.894Z,43.22
2022-12-09T15:11:31.356Z,43.75
2022-12-09T15:14:22.299Z,45.10
2022-12-09T15:16:51.194Z,50.28
2022-12-09T15:19:58.000Z,51.10
2022-12-09T15:22:20.491Z,47.42
2022-12-09T15:24:50.459Z,56.25
2022-12-09T15:27:20.999Z,42.88
2022-12-09T15:29:49.957Z,42.83
2022-12-09T15:32:21.348Z,45.15
2022-12-09T15:34:50.327Z,50.15
2022-12-09T15:37:20.751Z,44.80
2022-12-09T15:39:52.829Z,45.53
2022-12-09T15:42:26.987Z,50.17
2022-12-09T15:45:01.784Z,52.20
2022-12-09T15:47:33.671Z,43.80
2022-12-09T15:50:12.010Z,45.97
2022-12-09T15:52:46.217Z,49.95
2022-12-09T15:55:18.775Z,47.50
2022-12-09T15:57:49.852Z,43.40
2022-12-09T16:00:17.917Z,44.30
2022-12-09T16:05:22.252Z,46.03
2022-12-09T16:07:55.734Z,49.17
2022-12-09T16:10:26.666Z,46.85
2022-12-09T16:13:11.693Z,47.40
2022-12-09T16:15:53.691Z,43.83
2022-12-09T16:18:24.967Z,46.47
2022-12-09T16:21:18.791Z,50.42
2022-12-09T16:23:49.362Z,48.20
2022-12-09T16:26:20.835Z,47.63
2022-12-09T16:28:55.695Z,45.00
2022-12-09T16:31:23.357Z,49.45
2022-12-09T16:33:51.787Z,50.40
2022-12-09T16:36:25.274Z,48.83
2022-12-09T16:39:20.667Z,49.88
2022-12-09T16:42:01.530Z,50.65
2022-12-09T16:44:32.752Z,47.33
2022-12-09T16:47:14.579Z,46.88
2022-12-09T16:49:43.751Z,46.33
2022-12-09T16:52:15.281Z,47.53
2022-12-09T16:54:44.421Z,49.17
2022-12-09T16:57:16.569Z,48.90
2022-12-09T16:59:45.401Z,45.80
2022-12-09T17:02:19.856Z,49.63
2022-12-09T17:04:48.948Z,49.90
2022-12-09T17:07:17.759Z,49.80
2022-12-09T17:09:45.319Z,50.55
2022-12-09T17:12:12.797Z,48.72
2022-12-09T17:14:40.316Z,47.72
2022-12-09T17:17:07.863Z,47.25
2022-12-09T17:19:35.373Z,48.53
2022-12-09T17:22:02.893Z,48.58
2022-12-09T17:24:31.703Z,52.80
2022-12-09T17:26:59.370Z,56.45
2022-12-09T17:29:26.903Z,53.53
2022-12-09T17:31:54.787Z,49.03
2022-12-09T17:34:22.283Z,50.08
2022-12-09T17:36:49.840Z,49.42
2022-12-09T17:39:17.368Z,48.80
2022-12-09T17:41:46.185Z,44.47
2022-12-09T17:44:13.880Z,50.40
2022-12-09T17:46:41.366Z,48.53
2022-12-09T17:49:08.864Z,47.88
2022-12-09T17:51:36.791Z,47.53
2022-12-09T17:54:04.600Z,50.55
2022-12-09T17:56:32.289Z,48.42
2022-12-09T17:59:03.613Z,45.17
2022-12-09T18:01:33.999Z,50.45
2022-12-09T18:04:07.625Z,43.10
2022-12-09T18:06:36.639Z,44.25
2022-12-09T18:09:05.192Z,45.22
2022-12-09T18:11:33.361Z,45.47
2022-12-09T18:14:02.297Z,45.88
2022-12-09T18:16:30.115Z,42.30
2022-12-09T18:19:02.269Z,45.83
2022-12-09T18:21:29.757Z,44.33
2022-12-09T18:23:57.314Z,45.70
2022-12-09T18:26:30.501Z,42.95
2022-12-09T18:29:00.029Z,45.47
2022-12-09T18:33:57.415Z,46.50
2022-12-09T18:36:26.979Z,44.78
2022-12-09T18:38:54.780Z,46.10
2022-12-09T18:41:25.095Z,42.42
2022-12-09T18:43:54.447Z,42.78
2022-12-09T18:46:25.639Z,43.47
2022-12-09T18:48:58.422Z,46.08
2022-12-09T18:51:26.583Z,42.42
2022-12-09T18:53:54.232Z,45.53
2022-12-09T18:56:21.762Z,47.72
2022-12-09T18:59:06.039Z,41.47
2022-12-09T19:01:38.837Z,42.85
2022-12-09T19:04:11.229Z,44.08
2022-12-09T19:06:40.559Z,46.95
2022-12-09T19:09:10.068Z,47.30
2022-12-09T19:11:39.339Z,44.47
2022-12-09T19:14:08.411Z,46.35
2022-12-09T19:16:36.465Z,46.38
2022-12-09T19:21:39.964Z,45.83
2022-12-09T19:24:08.512Z,43.53
2022-12-09T19:26:37.301Z,48.83
2022-12-09T19:29:07.390Z,43.35
2022-12-09T19:31:36.725Z,45.55
2022-12-09T19:34:05.763Z,44.00
2022-12-09T19:36:34.275Z,46.20
2022-12-09T19:39:04.952Z,45.10
2022-12-09T19:41:32.856Z,47.70
2022-12-09T19:44:02.235Z,48.08
2022-12-09T19:46:30.006Z,42.70
2022-12-09T19:48:58.439Z,48.40
2022-12-09T19:51:27.771Z,46.85
2022-12-09T19:53:57.116Z,45.25
2022-12-09T19:56:26.920Z,46.33
2022-12-09T19:58:54.955Z,44.15
2022-12-09T20:04:08.764Z,52.83
2022-12-09T20:06:42.016Z,50.45
2022-12-09T20:09:13.770Z,52.08
2022-12-09T20:11:43.043Z,46.10
2022-12-09T20:14:13.496Z,46.35
2022-12-09T20:16:41.372Z,47.45
2022-12-09T20:19:09.583Z,53.33
2022-12-09T20:21:37.636Z,53.33
2022-12-09T20:26:35.963Z,52.20
2022-12-09T20:29:06.938Z,51.95
2022-12-09T20:31:36.458Z,47.25
2022-12-09T20:34:06.213Z,48.45
2022-12-09T20:36:38.187Z,51.03
2022-12-09T20:39:11.164Z,47.88
2022-12-09T20:41:41.709Z,49.17
2022-12-09T20:44:11.898Z,46.13
2022-12-09T20:46:40.857Z,50.80
2022-12-09T20:49:08.516Z,45.38
2022-12-09T20:51:39.215Z,50.22
2022-12-09T20:54:08.100Z,51.38
2022-12-09T20:56:36.401Z,53.30
2022-12-09T20:59:04.817Z,51.20
2022-12-09T21:01:35.505Z,49.28
2022-12-09T21:04:05.779Z,50.00
2022-12-09T21:06:35.790Z,43.05
2022-12-09T21:09:05.836Z,50.70
2022-12-09T21:11:33.742Z,51.85
2022-12-09T21:14:03.579Z,45.40
2022-12-09T21:16:34.179Z,51.30
2022-12-09T21:19:05.162Z,52.88
2022-12-09T21:21:36.484Z,51.75
2022-12-09T21:24:05.033Z,52.25
2022-12-09T21:26:32.654Z,47.85
2022-12-09T21:29:01.877Z,55.55
2022-12-09T21:31:31.354Z,45.85
2022-12-09T21:34:03.413Z,49.70
2022-12-09T21:36:33.118Z,49.30
2022-12-09T21:39:00.818Z,51.15
2022-12-09T21:41:30.578Z,53.92
2022-12-09T21:43:58.405Z,51.97
2022-12-09T21:46:27.716Z,53.90
2022-12-09T21:49:03.039Z,52.72
2022-12-09T21:51:33.520Z,52.22
2022-12-09T21:54:01.063Z,51.33
2022-12-09T21:56:30.870Z,53.53
2022-12-09T21:58:59.645Z,52.53
2022-12-09T22:01:28.816Z,55.25
2022-12-09T22:03:57.334Z,56.17
2022-12-09T22:06:24.983Z,51.08
2022-12-09T22:08:53.904Z,61.17
2022-12-09T22:11:23.445Z,61.40
2022-12-09T22:13:51.360Z,56.63
2022-12-09T22:16:21.076Z,55.00
2022-12-09T22:18:49.737Z,57.58
2022-12-09T22:21:25.998Z,54.50
2022-12-09T22:23:56.968Z,60.80
2022-12-09T22:26:25.179Z,63.72
2022-12-09T22:28:53.614Z,63.10
2022-12-09T22:31:23.162Z,59.08
2022-12-09T22:33:51.881Z,58.78
2022-12-09T22:36:20.387Z,54.10
2022-12-09T22:38:48.416Z,57.40
2022-12-09T22:43:45.906Z,60.03
2022-12-09T22:46:15.744Z,59.15
2022-12-09T22:48:44.018Z,56.25
2022-12-09T22:51:13.429Z,53.85
2022-12-09T22:53:41.563Z,58.67
2022-12-09T22:58:38.853Z,64.15
2022-12-09T23:01:10.261Z,59.53
2022-12-09T23:03:37.752Z,58.65
2022-12-09T23:06:05.598Z,58.30
2022-12-09T23:08:33.186Z,59.55
2022-12-09T23:11:05.513Z,66.35
2022-12-09T23:13:37.594Z,56.80
2022-12-09T23:16:12.710Z,57.88
2022-12-09T23:18:41.029Z,59.38
2022-12-09T23:21:10.260Z,53.63
2022-12-09T23:23:38.296Z,56.10
2022-12-09T23:28:36.936Z,59.60
2022-12-09T23:31:05.851Z,57.20
2022-12-09T23:33:36.735Z,58.65
2022-12-09T23:36:06.828Z,54.08
2022-12-09T23:38:34.418Z,60.53
2022-12-09T23:41:02.118Z,66.00
2022-12-09T23:43:31.378Z,69.13
2022-12-09T23:46:06.816Z,57.35
2022-12-09T23:48:40.316Z,58.83
2022-12-09T23:51:11.386Z,65.90
2022-12-09T23:53:39.441Z,59.60
2022-12-09T23:58:35.156Z,69.90
